Time;durP1;ratioP1;P1;durP2;ratioP2;P2;SDS_P1;SDS_P2;PMS_P1;PMS_P2;Temp;Humidity;BMP_temperature;BMP_pressure;BME280_temperature;BME280_humidity;BME280_pressure;Samples;Min_cycle;Max_cycle;Signal;HPM_P1;HPM_P2
2022/01/22 00:00:12;;;;;;;1.70;1.60;;;7.20;58.00;;;5.39;61.36;101699.00;8244340;28;20027;-80
2022/01/22 00:04:34;;;;;;;1.10;1.10;;;7.20;58.10;;;5.54;61.11;101714.28;8240657;28;20451;-80
2022/01/22 00:08:56;;;;;;;2.55;1.55;;;7.30;58.10;;;4.93;60.97;101614.38;8248598;28;20109;-80
2022/01/22 00:17:40;;;;;;;1.40;1.30;;;7.30;58.30;;;5.71;61.06;101732.94;8260070;28;20049;-80
2022/01/22 00:22:03;;;;;;;1.45;1.35;;;7.30;58.20;;;5.74;61.15;101726.84;8233483;28;20594;-80
2022/01/22 00:26:25;;;;;;;1.50;1.40;;;7.40;58.30;;;5.72;61.05;101731.19;8273199;28;20574;-80
2022/01/22 00:30:47;;;;;;;1.67;1.58;;;7.40;58.30;;;5.62;61.63;101696.84;8256889;28;20121;-80
2022/01/22 00:35:10;;;;;;;1.33;1.23;;;7.40;58.40;;;5.60;61.38;101690.81;8245218;28;20559;-80
2022/01/22 00:39:34;;;;;;;1.27;1.17;;;7.40;58.80;;;5.81;61.41;101731.03;8259028;28;20443;-80
2022/01/22 00:43:57;;;;;;;1.30;1.10;;;7.50;58.50;;;5.73;61.83;101720.81;8235662;28;20121;-80
2022/01/22 00:48:19;;;;;;;1.33;1.23;;;7.40;58.50;;;5.76;61.87;101730.25;8238525;28;20133;-79
2022/01/22 00:52:43;;;;;;;1.33;1.23;;;7.50;58.70;;;5.82;61.67;101740.50;8246045;28;20448;-80
2022/01/22 00:57:05;;;;;;;1.33;1.23;;;7.50;58.50;;;5.81;61.27;101737.97;8251409;28;20129;-80
2022/01/22 01:01:28;;;;;;;1.40;1.30;;;7.60;58.60;;;5.84;61.64;101753.44;8249298;28;20454;-81
2022/01/22 01:05:50;;;;;;;1.42;1.23;;;7.50;58.60;;;5.84;61.39;101748.28;8257023;28;20117;-80
2022/01/22 01:10:18;;;;;;;1.30;1.20;;;7.60;58.60;;;5.85;61.82;101748.22;8257810;28;20473;-79
2022/01/22 01:14:54;;;;;;;1.60;1.50;;;7.60;58.80;;;5.82;61.89;101739.66;8260938;28;20129;-80
2022/01/22 01:33:45;;;;;;;1.65;1.55;;;7.50;58.50;;;5.92;62.01;101793.03;8261517;28;20462;-80
2022/01/22 01:38:08;;;;;;;1.23;1.13;;;7.60;58.60;;;5.94;61.60;101793.88;8253680;28;20530;-80
2022/01/22 01:42:47;;;;;;;1.38;1.30;;;7.50;58.60;;;5.85;61.83;101776.72;8245649;28;20114;-80
2022/01/22 01:47:12;;;;;;;1.23;1.23;;;7.50;58.70;;;5.82;61.95;101773.34;8243052;28;20117;-80
2022/01/22 01:51:35;;;;;;;1.33;1.23;;;7.60;58.60;;;5.96;62.00;101802.50;8251785;28;20113;-81
2022/01/22 02:00:26;;;;;;;0.95;0.95;;;7.60;58.70;;;5.86;62.08;101793.13;8247630;28;20033;-79
2022/01/22 02:04:54;;;;;;;1.40;1.27;;;7.60;59.00;;;5.93;61.81;101807.69;8235354;28;20104;-79
2022/01/22 02:09:17;;;;;;;1.02;1.02;;;7.60;58.50;;;6.01;61.74;101828.34;8245064;28;20375;-80
2022/01/22 02:13:59;;;;;;;0.90;0.90;;;7.60;58.50;;;5.98;62.09;101821.47;8223299;28;20053;-79
2022/01/22 02:27:54;;;;;;;1.52;0.90;;;7.70;58.50;;;5.94;61.82;101831.06;8266430;28;20451;-79
2022/01/22 02:37:12;;;;;;;0.80;0.80;;;7.60;58.50;;;5.98;61.57;101848.25;8260790;28;20112;-80
2022/01/22 02:41:35;;;;;;;0.88;0.88;;;7.60;58.40;;;5.88;62.14;101835.44;8266665;28;20141;-81
2022/01/22 02:45:58;;;;;;;1.05;1.05;;;7.60;58.40;;;5.82;62.20;101832.97;8281557;28;20113;-79
2022/01/22 02:50:21;;;;;;;0.90;0.90;;;7.60;58.40;;;5.92;61.67;101850.94;8263151;28;20547;-79
2022/01/22 02:54:43;;;;;;;2.15;0.98;;;7.60;58.40;;;5.87;61.68;101849.31;8267105;28;20113;-80
2022/01/22 02:59:05;;;;;;;1.38;1.05;;;7.60;58.40;;;5.92;61.81;101863.88;8272349;28;20029;-79
2022/01/22 03:03:27;;;;;;;1.15;1.05;;;7.60;58.40;;;5.93;62.38;101867.31;8237219;28;20137;-80
2022/01/22 03:07:52;;;;;;;1.45;1.20;;;7.60;58.30;;;5.93;61.73;101873.41;8261666;28;20113;-79
2022/01/22 03:12:34;;;;;;;1.25;1.25;;;7.50;58.30;;;5.93;62.05;101877.69;8248779;28;20125;-80
2022/01/22 03:17:12;;;;;;;1.67;1.58;;;7.60;58.40;;;5.88;61.81;101871.72;8261715;28;20130;-79
2022/01/22 03:21:39;;;;;;;1.17;1.13;;;7.60;58.40;;;5.96;62.30;101882.84;8244014;28;20125;-81
2022/01/22 03:30:41;;;;;;;1.25;1.15;;;7.60;58.40;;;5.91;61.95;101897.59;8261018;28;20586;-79
2022/01/22 03:35:13;;;;;;;1.33;1.23;;;7.60;58.40;;;5.82;61.80;101882.22;8244084;28;20045;-80
2022/01/22 03:39:35;;;;;;;1.63;1.52;;;7.50;58.30;;;5.84;62.10;101898.59;8261473;28;20116;-80
2022/01/22 03:43:58;;;;;;;1.60;1.50;;;7.50;58.30;;;5.86;62.04;101902.00;8255348;28;20121;-79
2022/01/22 03:48:19;;;;;;;1.60;1.50;;;7.50;58.30;;;5.88;62.03;101905.44;8243857;28;20124;-79
2022/01/22 03:52:41;;;;;;;2.50;1.30;;;7.80;58.40;;;5.76;62.03;101911.69;8232531;28;20467;-79
2022/01/22 03:57:04;;;;;;;2.55;1.15;;;7.50;58.20;;;5.59;61.73;101895.53;8243615;28;20121;-79
2022/01/22 04:02:02;;;;;;;1.33;1.08;;;7.50;58.20;;;5.83;61.64;101954.75;8223827;28;20122;-79
2022/01/22 04:10:55;;;;;;;1.63;1.42;;;7.70;58.20;;;5.76;62.32;101966.97;8246588;28;20125;-79
2022/01/22 04:15:21;;;;;;;2.20;1.40;;;7.40;58.10;;;5.73;62.22;101964.41;8233279;28;20843;-79
2022/01/22 04:29:03;;;;;;;2.17;1.40;;;7.30;58.20;;;5.54;62.30;101983.72;8263848;28;20113;-79
2022/01/22 04:33:25;;;;;;;1.55;0.77;;;7.30;58.20;;;5.51;62.21;101989.78;8274750;28;20148;-80
2022/01/22 04:37:47;;;;;;;2.67;0.93;;;7.20;58.20;;;5.59;62.00;102014.72;8262807;28;20113;-80
2022/01/22 04:42:08;;;;;;;1.13;1.02;;;7.30;58.20;;;5.62;62.34;102019.88;8250591;28;20455;-79
2022/01/22 04:55:49;;;;;;;1.17;1.08;;;7.20;58.10;;;5.48;61.88;102022.63;8249079;28;20560;-79
2022/01/22 05:00:14;;;;;;;1.15;0.80;;;7.20;58.10;;;5.43;61.97;102020.13;8239371;28;20037;-80
2022/01/22 05:04:54;;;;;;;1.90;1.02;;;7.20;58.20;;;5.46;62.33;102056.34;8257488;28;20109;-79
2022/01/22 05:09:25;;;;;;;1.40;1.13;;;6.90;58.40;;;5.37;61.94;102048.66;8250224;28;20467;-79
2022/01/22 05:13:51;;;;;;;1.00;1.00;;;7.10;58.10;;;5.38;62.52;102065.94;8242139;28;20116;-80
2022/01/22 05:18:13;;;;;;;1.10;1.10;;;7.00;58.20;;;5.39;62.50;102070.25;8278191;28;20048;-79
2022/01/22 05:27:42;;;;;;;1.50;1.40;;;7.00;58.20;;;5.35;62.38;102091.88;8258729;28;20046;-79
2022/01/22 05:37:08;;;;;;;5.00;1.20;;;6.80;58.10;;;5.18;61.98;102083.44;8280384;28;20566;-79
2022/01/22 05:41:42;;;;;;;1.65;1.08;;;6.90;58.10;;;5.26;62.06;102115.28;8257945;28;20044;-82
2022/01/22 05:46:04;;;;;;;1.05;1.00;;;6.90;58.10;;;5.23;62.01;102130.84;8232176;28;20125;-80
2022/01/22 05:50:37;;;;;;;0.82;0.77;;;6.90;58.10;;;5.15;62.51;102128.34;8254140;28;20125;-80
2022/01/22 05:59:40;;;;;;;2.67;1.10;;;6.80;58.10;;;5.16;62.37;102168.91;8266659;28;20380;-80
2022/01/22 06:04:04;;;;;;;1.88;1.00;;;6.80;58.10;;;5.16;61.91;102166.31;8249952;28;20121;-80
2022/01/22 06:08:31;;;;;;;1.52;1.40;;;6.70;58.10;;;5.13;62.34;102158.59;8251390;28;20034;-80
2022/01/22 06:17:35;;;;;;;1.00;1.00;;;6.80;58.10;;;5.05;62.48;102166.41;8263430;28;20040;-80
2022/01/22 06:22:03;;;;;;;1.35;1.25;;;6.80;58.00;;;5.13;61.99;102196.53;8249375;28;20335;-80
2022/01/22 06:26:27;;;;;;;1.70;0.77;;;6.70;57.90;;;5.05;62.21;102189.72;8241852;28;20034;-80
2022/01/22 06:30:49;;;;;;;1.40;0.95;;;6.70;57.90;;;4.91;62.12;102168.25;8258039;28;20118;-80
2022/01/22 06:35:11;;;;;;;2.30;1.42;;;6.60;57.80;;;4.95;62.29;102190.66;8253414;28;20129;-80
2022/01/22 06:39:51;;;;;;;1.52;1.30;;;6.60;57.80;;;5.01;62.22;102208.72;8261499;28;20042;-80
2022/01/22 06:44:34;;;;;;;3.55;1.35;;;6.70;57.80;;;4.90;62.35;102202.78;8269674;28;20121;-80
2022/01/22 06:49:22;;;;;;;1.35;1.23;;;6.70;57.80;;;4.85;62.07;102215.75;8255566;28;20566;-80
2022/01/22 06:54:08;;;;;;;1.48;1.38;;;6.60;57.60;;;4.94;62.12;102242.44;8235924;28;20041;-80
2022/01/22 06:58:29;;;;;;;1.20;1.10;;;6.60;57.70;;;4.72;62.14;102215.84;8244733;28;20054;-81
2022/01/22 07:02:59;;;;;;;3.00;1.40;;;6.50;57.90;;;4.90;62.24;102248.53;8257209;28;20105;-80
2022/01/22 07:07:21;;;;;;;1.40;1.30;;;6.50;57.60;;;4.91;62.17;102255.41;8273612;28;20108;-80
2022/01/22 07:11:43;;;;;;;1.27;1.17;;;6.50;57.90;;;4.86;62.18;102264.06;8263614;28;20125;-80
2022/01/22 07:16:06;;;;;;;3.78;1.27;;;6.50;57.50;;;4.68;61.88;102247.81;8227987;28;20030;-80
2022/01/22 07:20:33;;;;;;;1.55;1.45;;;6.50;57.50;;;4.57;62.02;102240.09;8250816;28;20068;-80
2022/01/22 07:24:56;;;;;;;1.30;1.20;;;6.40;57.50;;;4.69;62.28;102270.22;8266651;28;20114;-80
2022/01/22 07:29:18;;;;;;;1.33;0.90;;;6.40;57.60;;;4.74;61.94;102284.84;8234230;28;20064;-80
2022/01/22 07:33:40;;;;;;;1.38;1.00;;;6.30;57.50;;;4.68;61.90;102274.53;8241496;28;20562;-80
2022/01/22 07:38:02;;;;;;;1.02;1.00;;;6.30;57.50;;;4.68;61.77;102284.88;8222010;28;20125;-82
2022/01/22 07:42:24;;;;;;;1.00;1.00;;;6.30;57.50;;;4.68;62.08;102284.03;8251201;28;20501;-81
2022/01/22 07:47:18;;;;;;;1.00;1.00;;;6.20;57.50;;;4.61;61.93;102276.28;8242574;28;20598;-82
2022/01/22 07:51:40;;;;;;;2.28;1.30;;;6.30;57.50;;;4.56;62.14;102272.00;8237166;28;20038;-80
2022/01/22 07:56:02;;;;;;;2.58;1.40;;;6.10;57.40;;;4.62;61.83;102290.09;8261978;28;20137;-81
2022/01/22 08:00:27;;;;;;;1.30;1.17;;;6.30;57.50;;;4.42;61.91;102266.91;8270607;28;20038;-83
2022/01/22 08:04:50;;;;;;;1.37;1.27;;;6.30;57.50;;;4.59;61.83;102298.72;8223504;28;20460;-81
2022/01/22 08:09:45;;;;;;;1.27;1.17;;;6.30;57.60;;;4.56;61.95;102296.13;8252796;28;20125;-81
2022/01/22 08:14:32;;;;;;;2.92;1.58;;;6.30;57.60;;;4.55;62.38;102306.50;8235425;28;20654;-80
2022/01/22 08:18:55;;;;;;;2.38;1.50;;;6.30;57.60;;;4.58;62.20;102312.50;8238246;28;20503;-82
2022/01/22 08:23:17;;;;;;;2.03;1.73;;;6.20;57.60;;;4.39;62.10;102291.03;8232617;28;20045;-81
2022/01/22 08:37:00;;;;;;;2.45;1.40;;;6.20;57.70;;;4.62;62.36;102349.59;8243506;28;20117;-79
2022/01/22 08:41:22;;;;;;;2.03;1.85;;;6.40;57.90;;;4.63;62.23;102361.66;8258087;28;20125;-79
2022/01/22 08:45:49;;;;;;;1.48;1.38;;;6.40;57.90;;;4.63;62.06;102364.25;8257102;28;20114;-81
2022/01/22 08:50:12;;;;;;;4.18;1.55;;;6.40;57.90;;;4.65;62.42;102368.56;8239672;28;20041;-81
2022/01/22 08:54:33;;;;;;;1.63;1.52;;;6.40;57.90;;;4.64;62.45;102368.53;8225646;28;20510;-81
2022/01/22 08:58:56;;;;;;;3.28;1.45;;;6.40;57.90;;;4.64;62.47;102368.53;8240804;28;20411;-82
2022/01/22 09:03:26;;;;;;;4.53;1.83;;;6.50;57.80;;;4.81;62.21;102399.56;8236133;28;20042;-80
2022/01/22 09:08:01;;;;;;;2.92;1.70;;;6.50;57.80;;;4.67;62.51;102381.47;8219357;28;20049;-80
2022/01/22 09:12:36;;;;;;;4.05;1.65;;;6.50;57.80;;;4.90;62.26;102409.00;8232149;28;20059;-80
2022/01/22 09:17:09;;;;;;;2.55;1.58;;;6.50;57.80;;;4.83;62.30;102405.56;8254375;28;20046;-80
2022/01/22 09:21:30;;;;;;;1.20;1.02;;;6.60;57.90;;;4.77;62.30;102401.25;8253119;23;21673;-80
2022/01/22 09:25:52;;;;;;;2.22;1.55;;;6.60;58.00;;;4.81;62.32;102410.75;8205918;28;20139;-80
2022/01/22 09:30:14;;;;;;;2.20;1.50;;;6.60;58.00;;;4.96;62.25;102430.53;8234359;28;20038;-80
2022/01/22 09:34:37;;;;;;;1.30;1.20;;;6.60;58.00;;;4.99;62.21;102432.25;8230460;28;20027;-80
2022/01/22 09:39:16;;;;;;;3.97;2.10;;;6.70;58.00;;;4.97;62.75;102429.69;8195119;28;20061;-79
2022/01/22 09:43:57;;;;;;;1.33;1.23;;;6.70;58.00;;;5.02;62.46;102435.69;8211362;28;20038;-80
2022/01/22 09:48:44;;;;;;;4.30;1.55;;;6.70;58.00;;;5.07;62.51;102448.59;8224772;28;20050;-80
2022/01/22 09:53:14;;;;;;;1.80;1.58;;;6.80;58.40;;;5.14;62.42;102459.81;8152091;28;20054;-80
2022/01/22 09:58:03;;;;;;;1.48;1.30;;;6.80;58.10;;;5.17;62.16;102454.59;8136295;29;20035;-80
2022/01/22 10:02:50;;;;;;;4.32;1.70;;;6.80;58.10;;;5.08;62.49;102434.81;8179312;28;20575;-80
2022/01/22 10:07:24;;;;;;;4.30;1.60;;;6.90;58.10;;;5.17;62.30;102444.25;8170298;29;20039;-80
2022/01/22 10:12:12;;;;;;;2.83;2.20;;;6.80;57.90;;;5.18;62.85;102457.16;8173840;29;20112;-80
2022/01/22 10:17:06;;;;;;;2.85;1.70;;;6.90;57.90;;;5.20;62.21;102476.16;8128910;29;20047;-79
2022/01/22 10:21:27;;;;;;;3.70;1.40;;;6.90;57.90;;;5.28;62.45;102476.97;8191546;29;20288;-80
2022/01/22 10:25:57;;;;;;;1.13;1.02;;;6.90;57.80;;;5.22;62.78;102468.41;8192264;29;20045;-80
2022/01/22 10:30:20;;;;;;;3.60;1.13;;;6.90;57.70;;;5.22;62.34;102466.66;8163251;29;20039;-79
2022/01/22 10:34:41;;;;;;;2.38;1.02;;;7.00;57.60;;;5.23;62.53;102476.16;8164770;29;20049;-79
2022/01/22 10:39:26;;;;;;;1.20;0.98;;;7.00;57.60;;;5.23;62.25;102470.09;8162575;28;20039;-79
2022/01/22 10:43:53;;;;;;;1.02;0.80;;;7.00;57.40;;;5.14;62.77;102449.44;8176185;29;20066;-79
2022/01/22 10:48:23;;;;;;;1.15;1.00;;;6.90;57.30;;;5.25;62.65;102471.81;8170904;29;20046;-80
2022/01/22 10:52:53;;;;;;;3.78;1.60;;;7.00;57.40;;;5.21;62.43;102461.47;8157768;29;20050;-79
2022/01/22 10:57:24;;;;;;;2.53;1.95;;;7.00;57.40;;;5.35;62.37;102484.72;8155641;29;20048;-80
2022/01/22 11:01:59;;;;;;;2.03;1.48;;;7.10;57.50;;;5.32;62.41;102465.75;8168631;29;20074;-83
2022/01/22 11:06:26;;;;;;;1.98;1.40;;;7.10;57.40;;;5.29;62.45;102460.59;8144914;29;20587;-79
2022/01/22 11:10:49;;;;;;;1.70;0.80;;;7.20;57.40;;;5.39;62.86;102471.75;8167893;29;20051;-79
2022/01/22 11:15:11;;;;;;;1.13;1.10;;;7.20;57.40;;;5.37;62.46;102460.53;8131341;29;20045;-79
2022/01/22 11:19:36;;;;;;;2.08;1.20;;;7.00;57.30;;;5.51;62.58;102486.38;8143633;29;20077;-79
2022/01/22 11:23:58;;;;;;;1.13;0.90;;;7.10;57.30;;;5.54;62.25;102476.00;8159786;29;20032;-82
2022/01/22 11:28:21;;;;;;;1.00;0.90;;;7.20;57.10;;;5.46;62.53;102464.81;8133323;29;20046;-81
2022/01/22 11:32:52;;;;;;;3.30;1.05;;;7.30;56.90;;;5.57;62.34;102481.16;8168774;29;20050;-81
2022/01/22 11:37:27;;;;;;;0.80;0.80;;;7.20;56.80;;;5.46;62.49;102476.03;8185274;28;20906;-80
2022/01/22 11:41:56;;;;;;;2.40;0.70;;;7.30;56.90;;;5.61;62.33;102482.84;8157749;28;20044;-79
2022/01/22 11:46:26;;;;;;;0.63;0.60;;;7.20;56.60;;;5.50;61.97;102458.72;8164718;29;20038;-81
2022/01/22 11:50:52;;;;;;;3.55;1.02;;;7.20;56.60;;;5.57;62.15;102467.34;8163367;29;20061;-80
2022/01/22 11:55:16;;;;;;;1.10;0.80;;;7.30;56.60;;;5.63;62.48;102467.31;8160915;29;20699;-81
2022/01/22 11:59:38;;;;;;;1.45;0.90;;;7.40;57.00;;;5.57;61.99;102451.81;8147956;29;20047;-79
2022/01/22 12:03:59;;;;;;;0.82;0.70;;;7.30;56.60;;;5.68;62.26;102469.00;8145909;29;20039;-79
2022/01/22 12:08:22;;;;;;;1.23;0.90;;;7.40;56.60;;;5.73;61.91;102477.59;8153685;29;20034;-79
2022/01/22 12:17:39;;;;;;;1.73;1.10;;;7.40;56.60;;;5.80;61.77;102487.91;8188712;29;20053;-79
2022/01/22 12:22:01;;;;;;;0.77;0.77;;;7.50;56.40;;;5.66;62.04;102457.75;8164875;29;20039;-78
2022/01/22 12:26:45;;;;;;;1.13;1.13;;;7.50;56.30;;;5.58;62.07;102438.81;8189617;28;20448;-78
2022/01/22 12:31:20;;;;;;;3.60;1.10;;;7.50;56.00;;;5.75;61.74;102481.03;8160186;29;20046;-79
2022/01/22 12:35:47;;;;;;;0.73;0.73;;;7.60;55.90;;;5.66;61.85;102462.09;8174701;29;20043;-78
2022/01/22 12:40:10;;;;;;;2.05;1.00;;;7.50;56.10;;;5.81;61.67;102489.66;8183011;28;20291;-78
2022/01/22 12:44:35;;;;;;;3.10;1.38;;;7.50;56.10;;;5.81;61.86;102487.06;8171083;29;20038;-80
2022/01/22 12:48:57;;;;;;;2.30;1.05;;;7.40;56.10;;;5.65;61.37;102458.66;8157381;28;20039;-79
2022/01/22 12:53:19;;;;;;;2.00;1.05;;;7.60;56.10;;;5.75;61.56;102465.50;8138963;28;20490;-79
2022/01/22 12:57:22;;;;;;;1.58;0.88;;;7.50;56.00;;;5.87;61.93;102480.09;8160092;29;20484;-79
2022/01/22 13:01:30;;;;;;;0.85;0.85;;;7.60;56.00;;;5.88;61.30;102480.94;8137474;29;20065;-79
2022/01/22 13:05:45;;;;;;;2.22;1.42;;;7.50;56.00;;;5.77;61.70;102447.31;8371700;28;20532;-79
2022/01/22 13:10:32;;;;;;;2.78;1.10;;;7.60;55.80;;;5.81;61.21;102448.19;8367266;28;20483;-79
2022/01/22 13:14:45;;;;;;;0.98;0.98;;;7.60;55.90;;;5.92;61.87;102464.50;8430525;27;20886;-79
2022/01/22 13:19:06;;;;;;;0.88;0.88;;;7.60;55.70;;;5.91;61.24;102470.53;8382754;28;20076;-80
2022/01/22 13:23:18;;;;;;;0.82;0.82;;;7.60;55.50;;;5.90;61.13;102474.88;8394445;28;20036;-80
2022/01/22 13:27:20;;;;;;;1.20;1.10;;;7.60;55.80;;;5.72;61.60;102457.72;8396307;28;20054;-79
2022/01/22 13:31:22;;;;;;;1.90;1.40;;;7.50;55.40;;;5.96;61.44;102499.94;8387173;28;20702;-79
2022/01/22 13:35:52;;;;;;;1.80;1.60;;;7.70;55.40;;;5.51;61.42;102429.38;8394691;28;20516;-79
2022/01/22 13:48:37;;;;;;;2.67;1.48;;;7.70;55.50;;;5.44;61.71;102414.75;8388716;28;20033;-80
2022/01/22 13:52:39;;;;;;;3.17;1.65;;;7.70;55.40;;;5.82;61.25;102486.19;8389571;28;20067;-80
2022/01/22 13:56:50;;;;;;;1.63;1.52;;;7.60;55.50;;;5.85;61.15;102478.38;8396670;28;20037;-80
2022/01/22 14:01:00;;;;;;;2.40;1.35;;;7.70;55.50;;;5.97;61.41;102510.31;8381180;28;20039;-80
2022/01/22 14:05:09;;;;;;;1.70;1.60;;;7.70;55.60;;;5.95;61.33;102501.66;8368416;28;20029;-79
2022/01/22 14:09:20;;;;;;;1.60;1.50;;;7.70;55.40;;;5.93;61.39;102497.31;8374605;28;20062;-79
2022/01/22 14:13:22;;;;;;;1.80;1.20;;;7.70;55.50;;;6.04;61.74;102502.47;8393252;28;20028;-79
2022/01/22 14:17:26;;;;;;;1.90;1.30;;;7.80;55.40;;;5.96;60.88;102494.75;8400036;28;20051;-80
2022/01/22 14:21:28;;;;;;;1.27;1.23;;;7.60;55.30;;;5.82;60.91;102466.28;8381698;28;20140;-78
2022/01/22 14:25:35;;;;;;;2.88;1.13;;;7.80;55.20;;;6.02;61.60;102502.47;8381880;28;20043;-79
2022/01/22 14:29:43;;;;;;;1.27;1.17;;;7.60;55.10;;;5.89;61.44;102474.91;8392146;28;20131;-80
2022/01/22 14:33:45;;;;;;;1.30;1.20;;;7.80;55.10;;;6.05;60.83;102501.59;8374693;28;20024;-80
2022/01/22 14:37:49;;;;;;;1.23;1.08;;;7.80;55.20;;;5.92;61.51;102477.47;8380334;28;20033;-80
2022/01/22 14:46:21;;;;;;;1.10;1.00;;;7.80;55.20;;;6.07;61.06;102502.44;8373217;28;20055;-79
2022/01/22 14:50:23;;;;;;;1.40;1.30;;;7.80;55.10;;;6.04;61.05;102502.47;8370870;28;20035;-79
2022/01/22 14:54:27;;;;;;;1.50;1.40;;;7.50;55.00;;;5.69;61.39;102449.97;8369151;28;20033;-80
2022/01/22 14:58:29;;;;;;;1.40;1.30;;;7.80;54.90;;;6.00;60.97;102509.41;8382171;28;20600;-79
2022/01/22 15:02:31;;;;;;;2.30;1.33;;;7.80;54.90;;;5.70;61.03;102459.47;8371581;28;20127;-78
2022/01/22 15:06:32;;;;;;;1.02;0.98;;;7.70;54.80;;;5.80;61.24;102478.41;8406188;28;20123;-78
2022/01/22 15:10:34;;;;;;;1.35;1.25;;;7.70;54.80;;;6.02;60.67;102523.22;8372035;28;20040;-80
2022/01/22 15:14:39;;;;;;;2.90;1.40;;;7.70;54.80;;;6.02;61.17;102530.13;8385531;28;20039;-80
2022/01/22 15:22:42;;;;;;;2.13;1.38;;;7.70;55.00;;;5.90;60.92;102518.09;8387831;28;20045;-79
2022/01/22 15:26:45;;;;;;;1.10;1.00;;;7.80;54.90;;;6.00;60.80;102539.69;8385953;28;20035;-78
2022/01/22 15:30:51;;;;;;;1.23;1.13;;;7.70;55.00;;;5.64;60.74;102490.59;8377044;28;20032;-80
2022/01/22 15:35:00;;;;;;;1.27;1.10;;;7.70;55.10;;;5.88;60.81;102532.78;8384959;28;20039;-81
2022/01/22 15:39:07;;;;;;;1.77;1.00;;;7.60;55.10;;;5.79;60.42;102531.13;8392433;28;20048;-79
2022/01/22 15:43:09;;;;;;;0.70;0.68;;;7.60;55.10;;;5.85;60.70;102544.03;8386867;28;20036;-79
2022/01/22 15:47:12;;;;;;;2.50;1.20;;;7.50;55.30;;;5.73;60.49;102526.84;8385557;28;20039;-80
2022/01/22 15:51:14;;;;;;;2.10;1.08;;;7.50;55.20;;;5.79;60.93;102544.09;8378065;28;21648;-80
2022/01/22 15:55:16;;;;;;;1.60;1.50;;;7.50;55.00;;;5.68;60.37;102530.34;8382969;28;20489;-80
2022/01/22 15:59:21;;;;;;;1.75;1.38;;;7.50;55.10;;;5.59;60.36;102525.19;8387416;28;20072;-80
2022/01/22 16:03:24;;;;;;;1.63;1.53;;;7.40;55.30;;;5.74;60.60;102549.28;8382400;28;20040;-80
2022/01/22 16:07:26;;;;;;;2.38;1.70;;;7.40;55.40;;;5.63;60.41;102538.13;8386221;28;20049;-80
2022/01/22 16:11:28;;;;;;;2.75;1.95;;;7.40;55.40;;;5.52;60.38;102526.97;8384553;28;20032;-80
2022/01/22 16:15:30;;;;;;;2.53;2.08;;;7.40;55.40;;;5.38;61.04;102515.81;8382654;28;20033;-80
2022/01/22 16:19:33;;;;;;;2.63;2.20;;;7.30;55.40;;;5.66;60.53;102566.63;8382332;28;20037;-80
2022/01/22 16:23:35;;;;;;;3.20;2.83;;;7.40;55.40;;;5.64;60.65;102564.91;8385711;28;20047;-81
2022/01/22 16:27:39;;;;;;;4.53;3.95;;;7.30;55.70;;;5.62;60.56;102580.47;8385885;28;20041;-80
2022/01/22 16:31:43;;;;;;;5.80;4.38;;;7.30;55.30;;;5.61;60.90;102577.88;8386743;28;20028;-81
2022/01/22 16:35:51;;;;;;;4.38;4.00;;;7.30;55.50;;;5.58;60.45;102576.16;8384546;28;20481;-80
2022/01/22 16:39:55;;;;;;;6.40;4.47;;;7.20;55.50;;;5.58;60.74;102573.56;8377490;28;20028;-80
2022/01/22 16:43:59;;;;;;;6.68;4.72;;;7.20;55.60;;;5.57;60.63;102569.25;8381872;28;20043;-81
2022/01/22 16:56:37;;;;;;;10.13;5.38;;;7.20;55.60;;;5.52;60.95;102581.38;8381386;28;20443;-81
2022/01/22 17:00:44;;;;;;;6.88;5.13;;;7.20;55.60;;;5.18;60.81;102510.69;8382887;28;20036;-81
2022/01/22 17:04:52;;;;;;;9.57;6.10;;;7.20;55.70;;;5.39;60.72;102544.28;8384914;28;20040;-81
2022/01/22 17:09:14;;;;;;;7.70;5.38;;;7.20;55.70;;;5.44;61.24;102562.41;8385924;28;20036;-81
2022/01/22 17:17:35;;;;;;;9.60;4.97;;;7.10;55.70;;;5.38;60.80;102572.81;8385161;28;20040;-81
2022/01/22 17:21:37;;;;;;;9.82;5.65;;;7.10;55.70;;;5.41;60.84;102572.78;8369405;28;20033;-81
2022/01/22 17:25:39;;;;;;;7.72;5.38;;;7.10;55.80;;;5.16;60.76;102533.16;8386164;28;20032;-81
2022/01/22 17:29:42;;;;;;;8.05;5.43;;;7.00;55.80;;;5.18;61.16;102536.59;8386093;28;20378;-79
2022/01/22 17:33:43;;;;;;;10.93;6.28;;;6.90;55.80;;;5.37;60.59;102568.47;8384914;28;20043;-80
2022/01/22 17:37:46;;;;;;;12.18;7.32;;;7.00;55.80;;;5.24;61.17;102550.41;8392499;28;20040;-80
2022/01/22 17:41:51;;;;;;;23.77;13.10;;;7.00;55.70;;;4.89;60.64;102493.56;8375974;28;20051;-79
2022/01/22 17:45:53;;;;;;;35.25;19.13;;;7.00;55.70;;;5.19;60.69;102552.16;8363238;28;20029;-80
2022/01/22 17:49:55;;;;;;;26.70;14.75;;;7.00;55.70;;;5.21;61.06;102565.97;8380632;28;20035;-81
2022/01/22 17:53:58;;;;;;;21.80;12.00;;;7.10;55.80;;;5.19;60.48;102556.47;8383558;28;20036;-80
2022/01/22 17:57:59;;;;;;;16.23;9.45;;;6.80;55.70;;;5.21;61.16;102565.06;8384878;28;20051;-80
2022/01/22 18:02:04;;;;;;;13.50;7.82;;;6.90;55.80;;;5.12;60.67;102565.09;8384689;28;20045;-80
2022/01/22 18:06:07;;;;;;;11.07;5.63;;;6.80;55.80;;;5.15;60.80;102583.22;8385868;28;20048;-81
2022/01/22 18:10:09;;;;;;;8.05;5.05;;;6.80;55.80;;;4.96;60.56;102567.72;8386110;28;20051;-80
2022/01/22 18:14:11;;;;;;;7.20;3.60;;;6.80;55.80;;;4.81;60.76;102544.47;8387821;28;20032;-80
2022/01/22 18:18:13;;;;;;;4.35;3.55;;;6.70;55.80;;;4.95;60.88;102560.84;8386151;28;20501;-80
2022/01/22 18:22:14;;;;;;;4.55;3.25;;;6.50;55.90;;;5.02;60.96;102584.97;8389830;28;20588;-81
2022/01/22 18:26:16;;;;;;;4.03;3.42;;;6.70;56.00;;;5.05;60.95;102591.03;8385672;28;20110;-80
2022/01/22 18:30:18;;;;;;;5.03;3.45;;;6.70;56.10;;;5.03;60.82;102595.34;8383971;28;20044;-80
2022/01/22 18:34:21;;;;;;;3.95;2.83;;;6.70;56.00;;;5.03;60.96;102594.47;8387036;28;20035;-80
2022/01/22 18:38:24;;;;;;;3.58;2.55;;;6.70;55.90;;;4.99;60.84;102583.25;8367923;28;20047;-81
2022/01/22 18:42:29;;;;;;;3.05;2.67;;;6.70;55.80;;;4.82;60.94;102548.78;8388350;28;20039;-79
2022/01/22 18:46:32;;;;;;;3.47;2.65;;;6.60;55.80;;;4.88;60.90;102567.72;8386748;28;20106;-80
2022/01/22 18:50:33;;;;;;;2.55;2.00;;;6.70;55.90;;;4.90;60.92;102575.50;8385200;28;20036;-80
2022/01/22 18:54:36;;;;;;;2.55;2.28;;;6.60;55.80;;;4.79;60.66;102562.59;8400522;28;20046;-80
2022/01/22 18:58:37;;;;;;;2.25;2.05;;;6.60;55.80;;;4.68;61.13;102564.34;8367938;28;20047;-81
2022/01/22 19:02:44;;;;;;;2.00;1.65;;;6.50;55.80;;;4.78;60.67;102575.50;8388375;28;20044;-81
2022/01/22 19:06:51;;;;;;;2.55;1.83;;;6.40;55.80;;;4.73;61.20;102585.91;8384705;28;20047;-81
2022/01/22 19:10:56;;;;;;;2.47;1.80;;;6.40;55.90;;;4.72;60.84;102588.47;8382188;28;20036;-81
2022/01/22 19:14:57;;;;;;;3.15;2.03;;;6.40;55.90;;;4.69;60.77;102586.75;8396169;28;20035;-80
2022/01/22 19:18:59;;;;;;;3.30;2.33;;;6.40;55.90;;;4.56;60.64;102564.31;8383417;28;20047;-82
2022/01/22 19:23:18;;;;;;;4.15;3.25;;;6.30;55.90;;;4.55;60.79;102558.28;8384465;28;20040;-80
2022/01/22 19:31:39;;;;;;;5.35;4.00;;;6.70;56.20;;;4.50;60.97;102538.47;8388274;28;20408;-87
2022/01/22 19:35:47;;;;;;;7.03;4.72;;;6.30;56.10;;;4.61;61.13;102554.84;8377079;28;20037;-80
2022/01/22 19:39:49;;;;;;;5.47;4.28;;;6.30;56.10;;;4.49;60.87;102541.94;8377108;28;20041;-80
2022/01/22 19:43:59;;;;;;;7.38;5.25;;;6.30;56.20;;;4.44;61.24;102534.16;8375587;28;20840;-80
2022/01/22 19:48:01;;;;;;;9.90;7.47;;;6.30;56.20;;;4.43;61.13;102530.72;8376897;28;20046;-81
2022/01/22 19:52:03;;;;;;;12.40;8.80;;;6.20;56.20;;;4.58;61.12;102566.06;8378110;28;20036;-81
2022/01/22 19:56:06;;;;;;;12.82;7.65;;;6.30;56.20;;;4.58;61.05;102568.63;8369008;28;20401;-80
2022/01/22 20:00:09;;;;;;;8.93;6.70;;;6.20;56.20;;;4.51;61.15;102566.06;8375588;28;20043;-80
2022/01/22 20:04:13;;;;;;;8.55;5.22;;;6.20;56.10;;;4.52;60.66;102584.16;8374975;28;20047;-80
2022/01/22 20:08:19;;;;;;;7.85;4.68;;;6.20;56.20;;;4.46;60.82;102568.66;8373198;28;20043;-80
2022/01/22 20:12:20;;;;;;;7.85;4.20;;;6.20;56.20;;;4.49;61.05;102570.38;8378619;28;20030;-80
2022/01/22 20:16:41;;;;;;;5.20;3.88;;;6.20;56.20;;;4.46;61.36;102570.38;8384495;28;20047;-79
2022/01/22 20:21:03;;;;;;;12.32;3.25;;;6.10;56.20;;;4.34;61.17;102553.97;8436868;28;20032;-79
2022/01/22 20:25:25;;;;;;;4.00;3.40;;;6.10;56.30;;;4.48;61.33;102576.41;8436797;27;20038;-81
2022/01/22 20:29:46;;;;;;;4.00;3.58;;;6.10;56.30;;;4.17;61.00;102540.19;8432952;28;20398;-80